Aviation Digital Data Service (ADDS)

Output produced by METARs form (1127 UTC 26 September 2018)
found at http://www.aviationweather.gov/metar/data/
 
KBHM 261053Z 19008KT 10SM OVC008 24/23 A3008 RMK AO2 CIG 006V011 SLP177 T02440228
KBHM 260915Z 2609/2706 22007KT P6SM OVC008 
     FM261200 19005KT P6SM VCSH BKN015 BKN050 
     FM261700 23007KT 3SM TSRA BR BKN025CB 
     FM270000 24005KT 6SM RA BR VCTS BKN015CB OVC025